Time;durP1;ratioP1;P1;durP2;ratioP2;P2;SDS_P1;SDS_P2;PMS_P1;PMS_P2;Temp;Humidity;BMP_temperature;BMP_pressure;BME280_temperature;BME280_humidity;BME280_pressure;Samples;Min_cycle;Max_cycle;Signal;HPM_P1;HPM_P2
2023/08/05 00:01:30;;;;;;;6.38;3.70;;;;;;;18.35;68.84;99879.41;4992863;28;20116;-76
2023/08/05 00:03:57;;;;;;;7.97;3.70;;;;;;;18.33;69.04;99884.06;4992820;28;20433;-78
2023/08/05 00:06:24;;;;;;;4.95;3.70;;;;;;;18.32;69.22;99887.66;4975526;28;20089;-76
2023/08/05 00:08:50;;;;;;;5.53;2.80;;;;;;;18.32;69.39;99892.19;4992911;28;20049;-77
2023/08/05 00:11:17;;;;;;;9.57;3.75;;;;;;;18.31;69.50;99885.13;4992622;28;20078;-77
2023/08/05 00:13:43;;;;;;;7.97;3.00;;;;;;;18.32;69.62;99882.34;4992879;28;20081;-77
2023/08/05 00:16:10;;;;;;;7.38;3.35;;;;;;;18.31;69.44;99878.00;4992430;28;20058;-76
2023/08/05 00:18:38;;;;;;;8.30;3.63;;;;;;;18.31;70.14;99872.66;4992725;28;20058;-77
2023/08/05 00:21:04;;;;;;;5.85;3.72;;;;;;;18.32;70.04;99874.34;4992734;28;20050;-76
2023/08/05 00:23:31;;;;;;;4.40;3.30;;;;;;;18.33;69.66;99875.19;4992078;28;20119;-76
2023/08/05 00:29:30;;;;;;;10.25;3.30;;;;;;;18.34;68.92;99871.56;4965280;28;20105;-77
2023/08/05 00:31:57;;;;;;;4.82;3.20;;;;;;;18.33;69.24;99867.22;4965008;28;20054;-74
2023/08/05 00:34:24;;;;;;;8.02;2.78;;;;;;;18.32;69.09;99873.53;4992660;28;20136;-74
2023/08/05 00:36:50;;;;;;;12.07;3.30;;;;;;;18.30;69.16;99865.66;4992556;28;20099;-74
2023/08/05 00:39:18;;;;;;;6.80;3.53;;;;;;;18.27;69.27;99868.59;4992838;28;20133;-74
2023/08/05 00:44:15;;;;;;;3.28;2.95;;;;;;;18.23;69.29;99865.34;4956780;23;20070;-78
2023/08/05 00:46:42;;;;;;;7.55;3.65;;;;;;;18.22;69.41;99862.81;4953194;29;20051;-78
2023/08/05 00:49:09;;;;;;;6.35;3.13;;;;;;;18.19;69.37;99863.09;4953514;29;20468;-78
2023/08/05 00:51:36;;;;;;;9.30;3.72;;;;;;;18.18;69.77;99858.75;4953375;29;20158;-75
2023/08/05 00:54:03;;;;;;;6.65;3.25;;;;;;;18.16;70.03;99861.53;4953330;29;20109;-75
2023/08/05 00:56:30;;;;;;;7.28;3.03;;;;;;;18.16;69.90;99858.88;4953031;29;20066;-76
2023/08/05 00:58:57;;;;;;;4.13;3.05;;;;;;;18.17;69.92;99862.38;4952926;29;20055;-75
2023/08/05 01:01:23;;;;;;;7.22;3.10;;;;;;;18.17;70.16;99859.72;4953299;29;20051;-75
2023/08/05 01:03:50;;;;;;;5.00;3.03;;;;;;;18.17;70.04;99857.88;4953248;29;20051;-78
2023/08/05 01:06:19;;;;;;;6.13;3.08;;;;;;;18.19;70.11;99855.09;4952894;29;20090;-75
2023/08/05 01:08:47;;;;;;;6.47;3.42;;;;;;;18.21;70.29;99850.50;4952136;28;20091;-77
2023/08/05 01:11:14;;;;;;;3.80;2.65;;;;;;;18.24;70.51;99860.84;4951538;29;20134;-74
2023/08/05 01:13:42;;;;;;;6.50;3.13;;;;;;;18.26;70.38;99872.22;4983767;23;20066;-79
2023/08/05 01:16:08;;;;;;;7.65;3.08;;;;;;;18.28;70.38;99864.94;4972097;28;20105;-79
2023/08/05 01:18:37;;;;;;;6.03;3.20;;;;;;;18.31;70.48;99866.47;4970982;28;20579;-79
2023/08/05 01:21:12;;;;;;;6.22;3.13;;;;;;;18.32;70.33;99868.19;4970900;28;20050;-79
2023/08/05 01:24:05;;;;;;;4.82;3.35;;;;;;;18.33;69.82;99869.88;4972212;28;20055;-79
2023/08/05 01:26:33;;;;;;;7.03;3.53;;;;;;;18.39;70.30;99865.81;4971898;28;20043;-79
2023/08/05 01:29:02;;;;;;;5.65;3.03;;;;;;;18.43;70.84;99865.41;4972099;28;20514;-78
2023/08/05 01:31:31;;;;;;;6.60;3.38;;;;;;;18.45;70.77;99868.78;4971529;28;20038;-79
2023/08/05 01:33:58;;;;;;;8.02;3.38;;;;;;;18.48;70.29;99857.88;4972069;28;20050;-79
2023/08/05 01:36:25;;;;;;;8.40;3.78;;;;;;;18.51;70.33;99854.09;4972005;28;20054;-78
2023/08/05 01:38:51;;;;;;;5.20;3.30;;;;;;;18.53;70.33;99856.59;4972190;28;20086;-79
2023/08/05 01:41:18;;;;;;;5.78;3.22;;;;;;;18.54;70.33;99848.44;4971611;28;20050;-79
2023/08/05 01:43:44;;;;;;;3.42;3.05;;;;;;;18.55;69.90;99843.97;4972002;28;20143;-79
2023/08/05 01:46:11;;;;;;;5.45;3.17;;;;;;;18.57;70.31;99848.19;4971885;28;20057;-79
2023/08/05 01:48:37;;;;;;;6.53;3.47;;;;;;;18.58;70.26;99841.03;4971898;28;20507;-79
2023/08/05 01:51:04;;;;;;;8.93;3.55;;;;;;;18.59;69.94;99842.72;4971775;28;20065;-79
2023/08/05 01:53:30;;;;;;;8.50;3.72;;;;;;;18.60;70.03;99850.59;4971819;28;20067;-80
2023/08/05 01:55:57;;;;;;;5.72;3.53;;;;;;;18.61;69.99;99846.06;4971594;28;20137;-79
2023/08/05 01:58:23;;;;;;;5.38;3.42;;;;;;;18.61;69.91;99840.75;4971437;28;20486;-79
2023/08/05 02:00:50;;;;;;;6.07;3.05;;;;;;;18.61;69.76;99841.59;4971735;28;20494;-79
2023/08/05 02:03:17;;;;;;;6.07;3.45;;;;;;;18.61;69.29;99838.94;4971979;28;20105;-79
2023/08/05 02:05:45;;;;;;;7.22;3.30;;;;;;;18.61;69.10;99844.28;4971894;28;20523;-79
2023/08/05 02:08:11;;;;;;;5.40;3.20;;;;;;;18.60;68.98;99845.25;4971250;28;20467;-79
2023/08/05 02:10:39;;;;;;;5.40;3.03;;;;;;;18.58;68.31;99843.72;4971711;28;20047;-79
2023/08/05 02:13:06;;;;;;;6.53;3.15;;;;;;;18.56;68.38;99848.31;4970507;28;20106;-79
2023/08/05 02:15:32;;;;;;;7.50;3.35;;;;;;;18.53;68.02;99846.78;4971898;28;20047;-79
2023/08/05 02:17:59;;;;;;;5.90;3.03;;;;;;;18.48;67.88;99841.88;4971269;28;20047;-79
2023/08/05 02:20:25;;;;;;;4.47;2.90;;;;;;;18.45;67.96;99841.28;4974691;28;20062;-79
2023/08/05 02:22:52;;;;;;;6.65;3.35;;;;;;;18.39;67.88;99852.50;4975704;28;20412;-79
2023/08/05 02:25:18;;;;;;;5.88;3.40;;;;;;;18.33;68.09;99844.06;4975237;28;20054;-79
2023/08/05 02:27:44;;;;;;;6.60;2.88;;;;;;;18.29;68.05;99837.34;4975030;28;20053;-79
2023/08/05 02:30:12;;;;;;;7.60;2.90;;;;;;;18.23;68.03;99830.72;4974124;28;20059;-79
2023/08/05 02:32:39;;;;;;;5.80;3.60;;;;;;;18.19;67.85;99831.13;4975375;28;20050;-79
2023/08/05 02:35:05;;;;;;;4.75;3.38;;;;;;;18.13;67.93;99829.00;4975211;28;20090;-79
2023/08/05 02:37:32;;;;;;;5.57;3.03;;;;;;;18.06;68.07;99824.16;4974607;28;20483;-79
2023/08/05 02:39:58;;;;;;;7.97;3.55;;;;;;;18.02;68.23;99819.25;4974910;28;20082;-79
2023/08/05 02:42:25;;;;;;;7.25;3.58;;;;;;;17.96;68.07;99820.63;4974066;28;20051;-79
2023/08/05 02:44:51;;;;;;;6.72;3.33;;;;;;;17.90;68.53;99816.69;4974974;28;20047;-79
2023/08/05 02:47:18;;;;;;;8.35;3.28;;;;;;;17.84;68.09;99812.72;4974633;28;20466;-78
2023/08/05 02:49:44;;;;;;;5.85;2.92;;;;;;;17.79;68.28;99814.13;4974822;28;20130;-79
2023/08/05 02:52:11;;;;;;;6.28;3.10;;;;;;;17.74;68.50;99814.50;4974917;28;20129;-79
2023/08/05 02:54:37;;;;;;;5.75;2.78;;;;;;;17.67;68.46;99822.19;4974790;28;20109;-79
2023/08/05 02:57:04;;;;;;;5.85;2.97;;;;;;;17.63;68.42;99827.91;4974244;28;20047;-79
2023/08/05 02:59:30;;;;;;;8.07;2.92;;;;;;;17.58;68.44;99825.66;4974234;28;20126;-79
2023/08/05 03:01:57;;;;;;;8.35;2.80;;;;;;;17.54;68.25;99833.03;4974719;28;20051;-79
2023/08/05 03:04:23;;;;;;;6.30;3.22;;;;;;;17.48;68.17;99825.59;4974872;28;20054;-79
2023/08/05 03:06:50;;;;;;;13.00;3.33;;;;;;;17.43;68.65;99825.97;4974358;28;20439;-78
2023/08/05 03:09:17;;;;;;;13.57;3.53;;;;;;;17.39;68.73;99826.38;4974630;28;20463;-78
2023/08/05 03:11:43;;;;;;;6.63;3.20;;;;;;;17.36;69.09;99822.16;4974788;28;20058;-79
2023/08/05 03:14:09;;;;;;;8.98;3.47;;;;;;;17.32;69.01;99823.38;4974532;28;20470;-79
2023/08/05 03:16:37;;;;;;;5.88;3.72;;;;;;;17.29;68.91;99819.16;4974228;28;20487;-79
2023/08/05 03:19:04;;;;;;;10.80;3.55;;;;;;;17.27;69.06;99826.44;4974302;28;20087;-79
2023/08/05 03:21:30;;;;;;;7.57;4.65;;;;;;;17.24;69.03;99821.38;4974311;28;20057;-79
2023/08/05 03:23:57;;;;;;;8.00;4.78;;;;;;;17.22;68.99;99812.66;4974533;28;20121;-79
2023/08/05 03:26:23;;;;;;;11.27;6.15;;;;;;;17.19;69.26;99815.59;4974091;28;20068;-79
2023/08/05 03:28:50;;;;;;;9.80;5.10;;;;;;;17.15;68.93;99812.34;4974395;28;20059;-79
2023/08/05 03:31:16;;;;;;;9.75;4.53;;;;;;;17.13;69.20;99813.44;4972904;28;20563;-78
2023/08/05 03:33:43;;;;;;;8.48;4.00;;;;;;;17.09;68.88;99801.38;4974203;28;20534;-78
2023/08/05 03:36:09;;;;;;;6.65;3.90;;;;;;;17.06;69.12;99818.44;4973737;28;20051;-78
2023/08/05 03:38:36;;;;;;;5.03;3.03;;;;;;;17.03;68.77;99805.38;4974209;28;20058;-78
2023/08/05 03:41:05;;;;;;;7.38;3.13;;;;;;;16.99;68.72;99795.94;4973798;28;20478;-78
2023/08/05 03:43:32;;;;;;;6.10;3.33;;;;;;;16.97;68.81;99795.25;4974218;28;20050;-79
2023/08/05 03:45:59;;;;;;;5.63;3.30;;;;;;;16.93;69.45;99794.66;4973754;28;20054;-79
2023/08/05 03:48:25;;;;;;;9.75;3.40;;;;;;;16.89;69.20;99796.72;4973901;28;20046;-78
2023/08/05 03:50:52;;;;;;;6.80;4.07;;;;;;;16.86;69.04;99796.16;4973990;28;20057;-79
2023/08/05 03:53:18;;;;;;;7.13;3.75;;;;;;;16.83;69.21;99791.06;4974079;28;20130;-79
2023/08/05 03:55:45;;;;;;;8.25;4.00;;;;;;;16.79;69.24;99803.78;4973949;28;20158;-79
2023/08/05 03:58:11;;;;;;;5.30;3.35;;;;;;;16.75;69.40;99797.84;4972230;28;20051;-79
2023/08/05 04:00:43;;;;;;;6.43;3.40;;;;;;;16.72;69.19;99795.47;4973442;28;20496;-79
2023/08/05 04:03:09;;;;;;;6.07;2.97;;;;;;;16.70;69.59;99784.13;4972242;28;20595;-78
2023/08/05 04:05:36;;;;;;;4.78;3.50;;;;;;;16.70;69.90;99775.31;4973699;28;20139;-79
2023/08/05 04:08:03;;;;;;;6.88;3.00;;;;;;;16.68;69.77;99786.91;4972239;28;20066;-79
2023/08/05 04:10:31;;;;;;;7.35;3.30;;;;;;;16.67;69.68;99781.69;4973677;28;20053;-79
2023/08/05 04:12:57;;;;;;;5.40;3.17;;;;;;;16.66;69.13;99780.03;4973246;28;20517;-78
2023/08/05 04:15:27;;;;;;;5.93;3.08;;;;;;;16.64;69.37;99774.00;4973484;28;20459;-78
2023/08/05 04:17:59;;;;;;;5.50;3.33;;;;;;;16.62;69.39;99775.94;4973115;28;20047;-79
2023/08/05 04:20:27;;;;;;;6.97;3.55;;;;;;;16.60;69.40;99773.38;4973442;28;20130;-78
2023/08/05 04:22:53;;;;;;;5.93;3.58;;;;;;;16.57;69.49;99775.47;4972754;28;20047;-79
2023/08/05 04:25:20;;;;;;;6.03;3.50;;;;;;;16.53;69.70;99778.38;4972797;28;20403;-79
2023/08/05 04:27:47;;;;;;;9.25;3.60;;;;;;;16.51;69.79;99769.69;4972972;28;20093;-78
2023/08/05 04:30:13;;;;;;;6.05;3.17;;;;;;;16.51;70.36;99775.00;4973125;28;20050;-79
2023/08/05 04:32:39;;;;;;;8.23;3.67;;;;;;;16.51;70.34;99769.69;4973046;28;20053;-79
2023/08/05 04:35:06;;;;;;;6.68;3.78;;;;;;;16.51;70.48;99767.03;4973304;28;20093;-79
2023/08/05 04:37:33;;;;;;;5.43;3.67;;;;;;;16.54;70.63;99771.25;4972849;28;20078;-79
2023/08/05 04:39:59;;;;;;;4.38;3.17;;;;;;;16.56;70.59;99768.47;4973013;28;20061;-79
2023/08/05 04:42:26;;;;;;;9.35;3.53;;;;;;;16.58;71.32;99763.88;4972401;28;20047;-79
2023/08/05 04:44:52;;;;;;;8.27;3.50;;;;;;;16.60;70.96;99760.09;4972642;28;20097;-79
2023/08/05 04:47:19;;;;;;;7.80;3.47;;;;;;;16.65;71.26;99754.41;4972777;28;20058;-79
2023/08/05 04:49:45;;;;;;;4.55;2.55;;;;;;;16.70;71.22;99756.72;4972832;28;20133;-78
2023/08/05 04:52:13;;;;;;;6.93;2.50;;;;;;;16.72;71.08;99752.94;4972545;28;20050;-78
2023/08/05 04:54:43;;;;;;;4.78;2.83;;;;;;;16.77;70.94;99749.91;4972766;28;20054;-79
2023/08/05 04:57:11;;;;;;;5.47;2.80;;;;;;;16.83;71.19;99759.19;4971001;28;20055;-78
2023/08/05 04:59:37;;;;;;;7.20;2.95;;;;;;;16.85;71.27;99747.44;4972527;28;20115;-79
2023/08/05 05:02:04;;;;;;;4.97;3.05;;;;;;;16.90;71.26;99747.06;4972715;28;20479;-79
2023/08/05 05:04:30;;;;;;;8.15;3.08;;;;;;;16.93;71.17;99747.63;4972456;28;20093;-79
2023/08/05 05:06:57;;;;;;;12.70;3.47;;;;;;;16.96;71.46;99738.56;4972308;28;20061;-79
2023/08/05 05:09:24;;;;;;;5.82;3.10;;;;;;;17.00;71.32;99739.13;4972567;28;20066;-79
2023/08/05 05:11:53;;;;;;;8.98;3.15;;;;;;;17.03;71.49;99738.88;4971072;28;20106;-79
2023/08/05 05:14:20;;;;;;;6.75;2.63;;;;;;;17.07;71.30;99735.03;4972376;28;20762;-79
2023/08/05 05:16:47;;;;;;;8.85;2.72;;;;;;;17.11;71.38;99743.56;4970940;28;20046;-79
2023/08/05 05:19:13;;;;;;;5.45;2.75;;;;;;;17.14;71.42;99740.66;4972485;28;20074;-79
2023/08/05 05:21:40;;;;;;;4.05;2.50;;;;;;;17.17;71.46;99741.25;4972302;28;20059;-79
2023/08/05 05:24:06;;;;;;;6.07;2.53;;;;;;;17.20;71.55;99740.16;4972020;28;20050;-78
2023/08/05 05:26:33;;;;;;;6.90;2.95;;;;;;;17.25;71.42;99747.72;4971832;28;20050;-78
2023/08/05 05:28:59;;;;;;;6.70;2.80;;;;;;;17.27;71.71;99743.97;4972413;28;20145;-79
2023/08/05 05:31:26;;;;;;;6.85;3.15;;;;;;;17.32;71.72;99751.56;4972131;28;20050;-78
2023/08/05 05:33:52;;;;;;;3.55;3.08;;;;;;;17.35;71.92;99743.31;4971937;28;20420;-79
2023/08/05 05:36:19;;;;;;;9.25;4.10;;;;;;;17.40;71.72;99738.44;4971827;28;20055;-79
2023/08/05 05:38:45;;;;;;;9.23;4.00;;;;;;;17.45;71.77;99743.34;4971957;28;20142;-79
2023/08/05 05:41:12;;;;;;;8.07;3.60;;;;;;;17.49;72.06;99742.09;4971887;28;20054;-79
2023/08/05 05:43:38;;;;;;;6.80;3.58;;;;;;;17.56;72.47;99745.06;4971850;28;20547;-80
2023/08/05 05:46:05;;;;;;;10.55;3.67;;;;;;;17.62;72.64;99741.03;4971268;28;20492;-79
2023/08/05 05:48:32;;;;;;;5.60;3.17;;;;;;;17.68;72.94;99741.34;4971743;28;20126;-78
2023/08/05 05:50:58;;;;;;;7.07;3.30;;;;;;;17.78;73.10;99738.72;4971737;28;20062;-79
2023/08/05 05:53:25;;;;;;;6.70;3.15;;;;;;;17.88;72.90;99753.88;4971910;28;20483;-78
2023/08/05 05:55:54;;;;;;;6.22;3.10;;;;;;;17.96;72.93;99746.06;4975468;28;20077;-78
2023/08/05 05:58:21;;;;;;;4.65;2.47;;;;;;;18.05;72.49;99750.56;4975840;28;20518;-78
2023/08/05 06:00:54;;;;;;;8.07;2.90;;;;;;;18.12;71.31;99756.22;4975893;28;20473;-78
2023/08/05 06:03:21;;;;;;;7.63;3.20;;;;;;;18.23;72.38;99748.13;4975901;28;20415;-79
2023/08/05 06:05:50;;;;;;;6.28;2.67;;;;;;;18.32;72.07;99742.97;4975555;28;20047;-78
2023/08/05 06:08:17;;;;;;;6.75;3.25;;;;;;;18.40;72.24;99748.44;4975747;28;20059;-78
2023/08/05 06:10:44;;;;;;;5.60;2.90;;;;;;;18.52;72.81;99754.47;4975790;28;20065;-77
2023/08/05 06:13:10;;;;;;;7.35;3.00;;;;;;;18.62;72.41;99749.97;4975631;28;20065;-78
2023/08/05 06:15:41;;;;;;;7.95;2.50;;;;;;;18.70;71.14;99749.28;4975404;28;20058;-78
2023/08/05 06:18:09;;;;;;;5.53;2.83;;;;;;;18.85;71.95;99741.72;4974877;28;20086;-77
2023/08/05 06:20:36;;;;;;;5.75;2.60;;;;;;;18.95;71.57;99738.19;4975398;28;20133;-77
2023/08/05 06:23:03;;;;;;;7.80;2.90;;;;;;;19.04;71.11;99736.47;4975790;28;20086;-78
2023/08/05 06:25:29;;;;;;;4.88;2.53;;;;;;;19.13;71.15;99740.97;4975330;28;20110;-78
2023/08/05 06:27:56;;;;;;;8.43;3.22;;;;;;;19.19;70.52;99745.75;4975253;28;20051;-79
2023/08/05 06:30:22;;;;;;;8.13;2.95;;;;;;;19.25;70.01;99731.81;4975454;28;20104;-76
2023/08/05 06:32:49;;;;;;;7.97;3.40;;;;;;;19.32;70.44;99731.25;4975360;28;20066;-76
2023/08/05 06:35:16;;;;;;;5.47;2.50;;;;;;;19.36;69.60;99741.47;4974999;28;20046;-77
2023/08/05 06:37:43;;;;;;;6.05;2.30;;;;;;;19.39;69.32;99735.00;4975179;28;20459;-78
2023/08/05 06:40:11;;;;;;;4.65;2.53;;;;;;;19.41;68.86;99751.72;4975422;28;20090;-77
2023/08/05 06:42:37;;;;;;;9.60;2.78;;;;;;;19.43;68.68;99752.41;4975253;28;20138;-78
2023/08/05 06:45:05;;;;;;;3.35;2.22;;;;;;;19.44;68.40;99755.94;4975169;28;20055;-77
2023/08/05 06:47:31;;;;;;;6.97;2.53;;;;;;;19.45;68.72;99757.59;4974337;28;20090;-77
2023/08/05 06:49:58;;;;;;;4.90;2.20;;;;;;;19.46;68.37;99753.94;4974888;28;20058;-77
2023/08/05 06:52:24;;;;;;;5.53;3.28;;;;;;;19.45;68.07;99760.28;4975145;28;20062;-77
2023/08/05 06:54:51;;;;;;;7.47;2.92;;;;;;;19.44;68.32;99754.09;4975057;28;20063;-78
2023/08/05 06:57:18;;;;;;;6.18;3.10;;;;;;;19.45;68.39;99758.47;4974432;28;20130;-77
2023/08/05 06:59:45;;;;;;;9.07;2.85;;;;;;;19.47;68.65;99748.47;4974747;28;20133;-78
2023/08/05 07:02:12;;;;;;;5.30;2.70;;;;;;;19.50;68.88;99750.00;4974653;28;20097;-77
2023/08/05 07:04:38;;;;;;;5.40;2.83;;;;;;;19.54;68.79;99730.03;4974482;28;20061;-77
2023/08/05 07:07:05;;;;;;;5.20;2.83;;;;;;;19.56;68.76;99730.75;4974624;28;20126;-78
2023/08/05 07:09:32;;;;;;;7.35;2.75;;;;;;;19.60;68.50;99734.81;4974514;28;20484;-78
2023/08/05 07:11:58;;;;;;;4.75;2.58;;;;;;;19.63;68.61;99731.81;4972922;28;20086;-77
2023/08/05 07:14:25;;;;;;;5.47;2.38;;;;;;;19.66;68.15;99728.00;4974346;28;20053;-79
2023/08/05 07:16:52;;;;;;;3.17;2.30;;;;;;;19.70;68.51;99728.56;4974282;28;20058;-77
2023/08/05 07:19:18;;;;;;;8.60;2.67;;;;;;;19.74;68.04;99727.28;4974515;28;20082;-78
2023/08/05 07:21:45;;;;;;;4.53;2.28;;;;;;;19.76;67.75;99718.13;4974637;28;20050;-78
2023/08/05 07:24:11;;;;;;;4.40;1.95;;;;;;;19.81;68.21;99723.00;4974630;28;20121;-77
2023/08/05 07:26:38;;;;;;;6.22;2.42;;;;;;;19.83;67.57;99722.88;4974234;28;20137;-79
2023/08/05 07:29:04;;;;;;;5.82;2.53;;;;;;;19.86;67.71;99726.09;4974346;28;20134;-79
2023/08/05 07:31:30;;;;;;;5.68;2.30;;;;;;;19.91;67.70;99714.94;4973865;28;20053;-79
2023/08/05 07:33:57;;;;;;;2.53;2.20;;;;;;;19.96;68.11;99715.34;4974422;28;20105;-78
2023/08/05 07:36:25;;;;;;;5.22;2.53;;;;;;;20.03;67.79;99712.94;4972525;28;20047;-79
2023/08/05 07:38:54;;;;;;;8.35;2.90;;;;;;;20.11;68.38;99718.38;4974273;28;20043;-78
2023/08/05 07:41:22;;;;;;;8.55;2.67;;;;;;;20.20;68.07;99719.31;4973948;28;20054;-78
2023/08/05 07:43:48;;;;;;;5.38;2.45;;;;;;;20.28;67.96;99705.19;4974094;28;20055;-78
2023/08/05 07:46:16;;;;;;;10.32;2.63;;;;;;;20.37;67.82;99708.78;4973662;28;20141;-78
2023/08/05 07:48:45;;;;;;;5.57;2.30;;;;;;;20.46;68.09;99694.50;4974249;28;20054;-77
2023/08/05 07:51:12;;;;;;;5.07;2.35;;;;;;;20.56;68.38;99694.41;4973846;28;20074;-78
2023/08/05 07:53:39;;;;;;;7.05;2.67;;;;;;;20.67;68.28;99693.34;4972735;28;20132;-78
2023/08/05 07:56:13;;;;;;;3.10;2.08;;;;;;;20.72;65.26;99674.97;4973627;28;20082;-79
2023/08/05 07:58:44;;;;;;;4.13;1.95;;;;;;;20.86;66.33;99683.44;4973724;28;20055;-79
2023/08/05 08:01:19;;;;;;;3.65;2.15;;;;;;;20.95;66.42;99679.84;4973689;28;20046;-79
2023/08/05 08:03:47;;;;;;;5.10;2.30;;;;;;;21.04;66.08;99672.72;4973602;28;20062;-78
2023/08/05 08:06:16;;;;;;;5.15;2.05;;;;;;;21.14;66.35;99667.22;4973251;28;20696;-79
2023/08/05 08:08:47;;;;;;;;;;;;;;;21.22;65.33;99670.81;4973990;28;20558;-78
2023/08/05 08:11:13;;;;;;;3.67;1.55;;;;;;;21.38;66.44;99660.34;4971880;28;19932;-78
2023/08/05 08:13:40;;;;;;;3.65;2.05;;;;;;;21.45;65.32;99661.34;4973314;28;20069;-78
2023/08/05 08:16:07;;;;;;;4.13;2.00;;;;;;;21.51;64.93;99662.56;4972963;28;20046;-78
2023/08/05 08:18:33;;;;;;;5.90;2.47;;;;;;;21.55;65.03;99659.41;4972724;28;20054;-78
2023/08/05 08:21:00;;;;;;;7.22;2.50;;;;;;;21.61;64.61;99655.25;4973150;28;20062;-78
2023/08/05 08:23:26;;;;;;;5.85;2.17;;;;;;;21.68;64.47;99650.88;4972758;28;20050;-78
2023/08/05 08:25:56;;;;;;;3.47;2.00;;;;;;;21.74;62.68;99652.97;4973059;28;20046;-78
2023/08/05 08:28:23;;;;;;;4.72;2.13;;;;;;;21.84;63.42;99657.34;4973137;28;20065;-78
2023/08/05 08:30:57;;;;;;;4.55;2.00;;;;;;;21.85;60.23;99653.66;4973126;28;20057;-79
2023/08/05 08:33:25;;;;;;;3.75;1.85;;;;;;;21.92;62.36;99653.81;4971828;28;20047;-79
2023/08/05 08:35:52;;;;;;;4.07;1.92;;;;;;;21.93;62.47;99653.66;4964831;28;20051;-79
2023/08/05 08:38:20;;;;;;;4.25;2.10;;;;;;;21.98;63.07;99653.19;4972571;28;20057;-78
2023/08/05 08:40:57;;;;;;;5.03;2.08;;;;;;;21.98;61.00;99647.84;4971697;28;20139;-78
2023/08/05 08:43:23;;;;;;;3.53;2.10;;;;;;;22.07;63.23;99651.34;4972541;28;20535;-79
2023/08/05 08:45:52;;;;;;;4.03;1.85;;;;;;;22.12;62.54;99651.69;4972734;28;20047;-79
2023/08/05 08:48:19;;;;;;;7.28;2.80;;;;;;;22.20;63.28;99638.28;4972352;28;20762;-79
2023/08/05 08:50:52;;;;;;;2.22;1.92;;;;;;;22.31;62.44;99639.78;4972981;28;20077;-78
2023/08/05 08:53:20;;;;;;;4.85;1.75;;;;;;;22.42;61.83;99633.25;4972462;28;20066;-78
2023/08/05 08:55:47;;;;;;;2.85;1.88;;;;;;;22.51;61.64;99632.25;4972653;28;20122;-78
2023/08/05 08:58:14;;;;;;;1.83;1.38;;;;;;;22.59;61.41;99630.59;4972308;28;20138;-77
2023/08/05 09:00:41;;;;;;;6.32;1.95;;;;;;;22.65;60.93;99627.22;4972345;28;20133;-77
2023/08/05 09:03:09;;;;;;;2.60;1.70;;;;;;;22.69;59.79;99611.66;4972037;28;20050;-78
2023/08/05 09:05:45;;;;;;;2.90;1.63;;;;;;;22.74;60.60;99610.13;4972648;28;20058;-77
2023/08/05 09:08:12;;;;;;;4.15;2.05;;;;;;;22.83;60.44;99607.44;4972210;28;20054;-78
2023/08/05 09:10:39;;;;;;;3.95;1.70;;;;;;;22.90;60.11;99603.88;4971816;28;20058;-78
2023/08/05 09:13:06;;;;;;;2.08;1.65;;;;;;;22.97;60.25;99598.66;4971979;28;20479;-77
2023/08/05 09:15:37;;;;;;;2.38;1.80;;;;;;;23.04;59.74;99601.50;4972340;28;20054;-78
2023/08/05 09:18:05;;;;;;;2.88;1.45;;;;;;;23.13;59.88;99602.28;4972285;28;20057;-77
2023/08/05 09:20:32;;;;;;;2.22;1.50;;;;;;;23.20;60.52;99603.28;4972467;28;20101;-77
2023/08/05 09:23:03;;;;;;;2.72;1.70;;;;;;;23.26;60.46;99597.22;4972365;28;20059;-78
2023/08/05 09:25:31;;;;;;;3.17;1.63;;;;;;;23.33;60.27;99591.97;4972076;28;20054;-78
2023/08/05 09:28:00;;;;;;;3.03;1.77;;;;;;;23.40;60.13;99594.84;4971434;28;20057;-78
2023/08/05 09:30:27;;;;;;;3.72;2.00;;;;;;;23.48;59.44;99597.47;4971921;28;20046;-78
2023/08/05 09:32:54;;;;;;;2.47;1.80;;;;;;;23.52;58.72;99582.66;4972073;28;20051;-78
2023/08/05 09:35:21;;;;;;;2.15;1.50;;;;;;;23.56;58.77;99586.66;4971994;28;20059;-78
2023/08/05 09:37:49;;;;;;;3.30;1.70;;;;;;;23.60;58.19;99586.31;4970403;28;20078;-77
2023/08/05 09:40:25;;;;;;;2.78;1.60;;;;;;;23.62;57.94;99581.63;4972177;28;20086;-78
2023/08/05 09:42:57;;;;;;;4.70;1.98;;;;;;;23.66;57.77;99574.88;4972224;28;20169;-78
2023/08/05 09:45:25;;;;;;;5.25;2.20;;;;;;;23.69;58.76;99569.97;4972192;28;20086;-78
2023/08/05 09:48:09;;;;;;;2.92;2.17;;;;;;;23.69;57.11;99569.13;4971693;28;20134;-77
2023/08/05 09:50:38;;;;;;;4.68;1.90;;;;;;;23.76;58.73;99570.09;4972001;28;20054;-78
2023/08/05 09:53:07;;;;;;;3.15;1.95;;;;;;;23.79;58.61;99561.69;4971802;28;20085;-77
2023/08/05 09:55:36;;;;;;;3.15;1.83;;;;;;;23.82;58.36;99558.59;4971825;28;20051;-78
2023/08/05 09:58:07;;;;;;;3.30;2.20;;;;;;;23.84;58.61;99553.06;4971334;28;20050;-78
2023/08/05 10:00:40;;;;;;;2.47;1.80;;;;;;;23.84;56.42;99558.44;4970423;28;20117;-77
2023/08/05 10:03:13;;;;;;;5.45;2.25;;;;;;;23.85;56.62;99548.53;4971927;28;20043;-78
2023/08/05 10:05:43;;;;;;;3.63;2.05;;;;;;;23.85;58.05;99553.91;4971633;28;20054;-77
2023/08/05 10:08:12;;;;;;;6.00;2.20;;;;;;;23.82;57.24;99547.84;4971510;28;20451;-77
2023/08/05 10:10:40;;;;;;;2.08;1.88;;;;;;;23.82;58.57;99544.34;4971965;28;20114;-77
2023/08/05 10:13:10;;;;;;;3.92;1.88;;;;;;;23.80;58.25;99541.84;4970468;28;20090;-79
2023/08/05 10:15:41;;;;;;;3.20;2.25;;;;;;;23.86;59.45;99534.91;4971689;28;20054;-78
2023/08/05 10:18:09;;;;;;;4.55;2.17;;;;;;;23.93;58.46;99532.34;4971599;28;20051;-78
2023/08/05 10:20:37;;;;;;;3.20;1.80;;;;;;;24.01;58.79;99516.16;4971752;28;20043;-78
2023/08/05 10:23:09;;;;;;;3.00;1.83;;;;;;;24.07;59.11;99518.09;4971846;28;20050;-77
2023/08/05 10:25:42;;;;;;;4.25;2.25;;;;;;;24.11;57.90;99512.38;4971738;28;20047;-78
2023/08/05 10:28:30;;;;;;;2.58;2.00;;;;;;;24.22;60.25;99517.31;4971333;28;20082;-78
2023/08/05 10:30:57;;;;;;;4.22;2.03;;;;;;;24.32;59.83;99498.22;4971958;28;20051;-78
2023/08/05 10:33:25;;;;;;;3.70;2.00;;;;;;;24.41;59.10;99497.09;4971775;28;20415;-78
2023/08/05 10:36:00;;;;;;;3.42;2.10;;;;;;;24.46;56.39;99489.34;4971530;28;20094;-78
2023/08/05 10:38:27;;;;;;;4.60;2.33;;;;;;;24.58;59.07;99494.22;4971838;28;20043;-78
2023/08/05 10:41:00;;;;;;;4.00;2.30;;;;;;;24.62;57.83;99497.41;4973512;28;20059;-78
2023/08/05 10:43:33;;;;;;;4.57;2.20;;;;;;;24.59;55.95;99494.06;4975204;28;20133;-78
2023/08/05 10:46:01;;;;;;;3.30;2.15;;;;;;;24.59;57.63;99487.81;4974934;28;20514;-78
2023/08/05 10:48:34;;;;;;;5.30;2.20;;;;;;;24.49;55.50;99488.13;4974687;28;20484;-77
2023/08/05 10:51:07;;;;;;;2.45;1.85;;;;;;;24.39;55.46;99477.63;4974783;28;20058;-77
2023/08/05 10:53:34;;;;;;;2.90;2.13;;;;;;;24.31;57.04;99475.03;4973703;28;20058;-77
2023/08/05 10:56:01;;;;;;;2.38;1.90;;;;;;;24.19;56.38;99475.47;4974837;28;20134;-77
2023/08/05 10:58:28;;;;;;;4.22;2.50;;;;;;;24.06;56.35;99468.03;4974104;28;20101;-77
2023/08/05 11:01:03;;;;;;;3.53;2.00;;;;;;;23.91;55.43;99475.22;4974715;28;20736;-78
2023/08/05 11:03:37;;;;;;;3.55;2.60;;;;;;;23.81;56.98;99470.13;4974710;28;20411;-79
2023/08/05 11:06:04;;;;;;;2.80;2.22;;;;;;;23.71;57.88;99467.69;4974497;28;20050;-78
2023/08/05 11:08:33;;;;;;;6.25;2.55;;;;;;;23.62;57.37;99466.09;4974958;28;20130;-78
2023/08/05 11:11:01;;;;;;;4.50;2.13;;;;;;;23.53;57.77;99466.16;4974276;28;20057;-78
2023/08/05 11:13:32;;;;;;;5.40;2.50;;;;;;;23.45;56.87;99468.88;4974506;28;20161;-78
2023/08/05 11:16:02;;;;;;;4.78;2.85;;;;;;;23.39;57.86;99462.38;4974313;28;20083;-77
2023/08/05 11:18:30;;;;;;;3.25;2.70;;;;;;;23.35;58.78;99457.53;4974462;28;20126;-77
2023/08/05 11:20:58;;;;;;;2.70;2.50;;;;;;;23.26;58.05;99457.59;4966407;28;20134;-77
2023/08/05 11:23:24;;;;;;;3.88;2.80;;;;;;;23.21;57.85;99448.38;4972571;28;20047;-78
2023/08/05 11:25:52;;;;;;;4.53;2.35;;;;;;;23.14;57.74;99442.91;4974315;28;20051;-78
2023/08/05 11:28:20;;;;;;;6.75;2.50;;;;;;;23.04;58.07;99443.13;4973777;28;20134;-78
2023/08/05 11:30:47;;;;;;;2.13;1.92;;;;;;;22.97;58.71;99436.78;4974079;28;20155;-78
2023/08/05 11:33:13;;;;;;;3.40;2.60;;;;;;;22.90;58.56;99442.00;4972661;28;20134;-78
2023/08/05 11:35:45;;;;;;;7.72;2.80;;;;;;;22.82;58.51;99439.38;4973347;28;20051;-80
2023/08/05 11:38:18;;;;;;;3.85;2.35;;;;;;;22.76;58.23;99433.69;4973976;28;20057;-79
2023/08/05 11:40:47;;;;;;;3.05;2.40;;;;;;;22.75;60.46;99426.66;4972351;28;20051;-79
2023/08/05 11:43:15;;;;;;;4.35;2.90;;;;;;;22.77;60.04;99427.31;4973434;28;20101;-80